Time;durP1;ratioP1;P1;durP2;ratioP2;P2;SDS_P1;SDS_P2;PMS_P1;PMS_P2;Temp;Humidity;BMP_temperature;BMP_pressure;BME280_temperature;BME280_humidity;BME280_pressure;Samples;Min_cycle;Max_cycle;Signal;HPM_P1;HPM_P2
2023/02/17 00:02:24;;;;;;;78.70;41.70;;;;;;;-0.22;68.07;97750.22;108760;1250;101486;-74
2023/02/17 00:04:53;;;;;;;82.70;40.70;;;;;;;-0.19;67.93;97750.15;108973;1250;99930;-74
2023/02/17 00:07:21;;;;;;;74.20;40.10;;;;;;;-0.17;67.94;97752.84;108667;1251;95886;-75
2023/02/17 00:09:50;;;;;;;76.70;39.20;;;;;;;-0.22;68.01;97753.98;109020;1251;96005;-76
2023/02/17 00:12:18;;;;;;;73.10;38.10;;;;;;;-0.26;68.01;97750.95;109018;1250;103602;-74
2023/02/17 00:14:46;;;;;;;74.80;40.10;;;;;;;-0.29;67.91;97750.71;109029;1251;101332;-76
2023/02/17 00:17:14;;;;;;;81.50;40.60;;;;;;;-0.31;68.04;97750.68;108960;1251;99999;-77
2023/02/17 00:19:43;;;;;;;85.40;40.90;;;;;;;-0.31;68.18;97752.13;108981;1251;95665;-77
2023/02/17 00:22:11;;;;;;;80.30;41.40;;;;;;;-0.28;68.04;97753.65;109037;1250;96034;-75
2023/02/17 00:24:40;;;;;;;70.80;37.60;;;;;;;-0.30;68.30;97752.16;109061;1250;103753;-76
2023/02/17 00:27:08;;;;;;;70.90;38.80;;;;;;;-0.31;68.22;97754.58;108891;1251;101188;-73
2023/02/17 00:29:37;;;;;;;76.60;41.30;;;;;;;-0.32;68.29;97755.86;108647;1251;99867;-74
2023/02/17 00:32:05;;;;;;;81.10;41.50;;;;;;;-0.37;68.27;97754.85;108964;1249;95557;-74
2023/02/17 00:34:33;;;;;;;76.90;40.70;;;;;;;-0.42;68.24;97762.09;109047;1253;96029;-76
2023/02/17 00:37:01;;;;;;;78.80;41.70;;;;;;;-0.45;68.34;97760.70;109026;1251;103596;-74
2023/02/17 00:39:30;;;;;;;80.60;41.90;;;;;;;-0.45;68.29;97756.85;108713;1251;101226;-74
2023/02/17 00:41:58;;;;;;;77.70;39.80;;;;;;;-0.48;68.34;97759.05;108794;1250;99094;-74
2023/02/17 00:44:26;;;;;;;71.50;39.70;;;;;;;-0.51;68.29;97757.75;108837;1251;95604;-75
2023/02/17 00:46:54;;;;;;;75.40;39.00;;;;;;;-0.51;68.37;97754.89;109011;1253;96000;-74
2023/02/17 00:49:25;;;;;;;77.50;38.60;;;;;;;-0.51;68.34;97756.67;109009;1251;103257;-74
2023/02/17 00:51:54;;;;;;;76.90;38.90;;;;;;;-0.51;68.35;97754.73;109054;1250;101383;-76
2023/02/17 00:54:22;;;;;;;74.60;39.60;;;;;;;-0.52;68.55;97751.48;108656;1250;99587;-76
2023/02/17 00:56:50;;;;;;;73.80;38.60;;;;;;;-0.53;68.54;97751.00;108954;1251;95577;-78
2023/02/17 00:59:19;;;;;;;74.10;40.10;;;;;;;-0.55;68.49;97743.06;108984;1251;95964;-75
2023/02/17 01:01:47;;;;;;;71.80;38.80;;;;;;;-0.58;68.65;97742.94;109039;1251;103801;-74
2023/02/17 01:04:15;;;;;;;70.70;37.70;;;;;;;-0.62;68.70;97741.20;108996;1251;106986;-74
2023/02/17 01:06:44;;;;;;;71.10;38.40;;;;;;;-0.62;68.68;97742.11;109026;1251;99862;-77
2023/02/17 01:09:14;;;;;;;70.60;37.40;;;;;;;-0.62;68.89;97739.25;108998;1250;95884;-74
2023/02/17 01:11:43;;;;;;;63.80;36.70;;;;;;;-0.63;68.86;97734.25;108918;1249;97259;-74
2023/02/17 01:14:14;;;;;;;66.90;36.50;;;;;;;-0.64;68.79;97734.48;109045;1249;103506;-75
2023/02/17 01:16:46;;;;;;;68.60;38.30;;;;;;;-0.66;68.82;97730.58;109039;1251;101553;-74
2023/02/17 01:19:15;;;;;;;;;;;;;;;-0.64;68.87;97727.99;108654;1250;99964;-74
2023/02/17 01:21:44;;;;;;;68.20;35.80;;;;;;;-0.67;69.00;97724.82;108982;1250;95558;-74
2023/02/17 01:24:13;;;;;;;65.50;36.90;;;;;;;-0.70;68.92;97720.02;109034;1250;95996;-74
2023/02/17 01:26:41;;;;;;;63.50;36.50;;;;;;;-0.73;68.90;97718.09;109000;1250;103161;-74
2023/02/17 01:29:10;;;;;;;64.70;34.40;;;;;;;-0.77;68.97;97718.13;109077;1251;101243;-74
2023/02/17 01:31:39;;;;;;;61.20;33.40;;;;;;;-0.77;69.10;97717.98;109001;1251;100499;-78
2023/02/17 01:34:08;;;;;;;59.70;32.70;;;;;;;-0.78;69.07;97720.70;108995;1251;95540;-74
2023/02/17 01:36:36;;;;;;;59.00;33.40;;;;;;;-0.82;69.03;97714.81;109020;1251;96019;-74
2023/02/17 01:39:04;;;;;;;60.60;32.10;;;;;;;-0.82;69.22;97712.89;108994;1253;103216;-76
2023/02/17 01:41:32;;;;;;;63.00;34.20;;;;;;;-0.83;69.29;97712.77;108987;1249;100997;-74
2023/02/17 01:44:20;;;;;;;63.80;32.50;;;;;;;-0.82;69.49;97708.85;109008;1250;98508;-78
2023/02/17 01:46:51;;;;;;;58.00;32.60;;;;;;;-0.84;69.57;97704.10;109003;1250;95566;-75
2023/02/17 01:49:36;;;;;;;59.40;34.00;;;;;;;-0.84;69.43;97700.22;109016;1249;96102;-75
2023/02/17 01:52:20;;;;;;;59.60;34.20;;;;;;;-0.86;69.53;97695.23;109010;1250;103176;-76
2023/02/17 01:54:55;;;;;;;53.90;30.80;;;;;;;-0.87;69.51;97693.73;108844;1250;101275;-75
2023/02/17 01:57:30;;;;;;;56.80;31.90;;;;;;;-0.89;69.53;97685.25;108670;1251;98484;-76
2023/02/17 01:59:59;;;;;;;57.80;32.70;;;;;;;-0.90;69.59;97678.86;109001;1252;95619;-77
2023/02/17 02:02:29;;;;;;;52.30;30.20;;;;;;;-0.90;69.57;97674.03;108705;1251;96230;-77
2023/02/17 02:04:58;;;;;;;58.00;29.40;;;;;;;-0.89;69.75;97665.14;108941;1252;103501;-74
2023/02/17 02:07:30;;;;;;;56.50;30.30;;;;;;;-0.91;69.83;97663.92;108985;1249;101232;-74
2023/02/17 02:09:59;;;;;;;56.90;31.00;;;;;;;-0.92;69.91;97663.81;108990;1251;99567;-75
2023/02/17 02:12:31;;;;;;;54.90;30.10;;;;;;;-0.93;69.95;97660.36;109017;1251;95654;-76
2023/02/17 02:15:22;;;;;;;56.90;30.20;;;;;;;-0.96;70.07;97656.01;109016;1251;95547;-74
2023/02/17 02:18:09;;;;;;;57.40;29.60;;;;;;;-0.97;70.13;97655.04;109017;1251;103674;-74
2023/02/17 02:21:18;;;;;;;55.50;30.40;;;;;;;-0.97;70.06;97651.19;108979;1251;101497;-77
2023/02/17 02:24:12;;;;;;;52.90;30.30;;;;;;;-0.99;70.06;97654.39;108990;1249;99619;-78
2023/02/17 02:27:15;;;;;;;55.10;31.30;;;;;;;-1.01;70.26;97651.55;108706;1250;95779;-77
2023/02/17 02:29:53;;;;;;;59.20;32.10;;;;;;;-1.00;70.32;97649.90;109028;1251;96004;-74
2023/02/17 02:32:52;;;;;;;53.00;30.60;;;;;;;-0.96;70.43;97652.63;109027;1251;104071;-77
2023/02/17 02:35:42;;;;;;;59.70;33.80;;;;;;;-0.93;70.48;97655.02;108676;1250;102262;-75
2023/02/17 02:38:24;;;;;;;56.60;31.50;;;;;;;-0.89;70.55;97658.06;109012;1250;100085;-78
2023/02/17 02:41:07;;;;;;;55.00;30.20;;;;;;;-0.88;70.53;97653.88;108972;1251;95557;-74
2023/02/17 02:43:36;;;;;;;53.40;28.40;;;;;;;-0.86;70.67;97657.44;109075;1251;96161;-74
2023/02/17 02:46:04;;;;;;;51.20;28.40;;;;;;;-0.85;70.72;97656.79;108717;1251;103595;-74
2023/02/17 02:48:32;;;;;;;57.80;30.10;;;;;;;-0.84;70.81;97657.38;108993;1250;100254;-75
2023/02/17 02:51:09;;;;;;;58.20;31.00;;;;;;;-0.88;70.85;97658.67;108832;1250;99756;-76
2023/02/17 02:54:01;;;;;;;58.50;30.30;;;;;;;-0.91;70.95;97661.25;108979;1251;95582;-74
2023/02/17 02:57:02;;;;;;;57.50;30.70;;;;;;;-0.91;70.90;97661.98;108683;1251;95789;-73
2023/02/17 02:59:55;;;;;;;57.10;29.70;;;;;;;-0.95;70.90;97659.30;109042;1251;103639;-77
2023/02/17 03:02:30;;;;;;;54.00;29.60;;;;;;;-0.96;71.04;97657.63;109031;1251;101852;-74
2023/02/17 03:05:13;;;;;;;58.60;31.70;;;;;;;-0.94;70.88;97658.46;108994;1251;99951;-74
2023/02/17 03:07:59;;;;;;;54.90;30.20;;;;;;;-0.91;70.92;97663.90;108656;1251;95995;-74
2023/02/17 03:10:28;;;;;;;58.10;31.10;;;;;;;-0.89;71.18;97666.31;109022;1250;95958;-76
2023/02/17 03:12:58;;;;;;;52.90;29.20;;;;;;;-0.88;71.10;97668.58;109042;1249;103857;-77
2023/02/17 03:15:34;;;;;;;52.70;30.30;;;;;;;-0.91;71.21;97662.70;109029;1251;101535;-76
2023/02/17 03:18:03;;;;;;;54.50;29.60;;;;;;;-0.91;71.32;97664.57;109014;1250;99888;-74
2023/02/17 03:20:37;;;;;;;61.80;31.60;;;;;;;-0.88;71.32;97667.38;108713;1249;95640;-74
2023/02/17 03:23:07;;;;;;;50.60;27.50;;;;;;;-0.88;71.43;97668.36;108686;1251;96158;-77
2023/02/17 03:25:36;;;;;;;51.00;28.30;;;;;;;-0.90;71.45;97665.39;109075;1251;103233;-74
2023/02/17 03:28:04;;;;;;;52.80;28.80;;;;;;;-0.90;71.58;97672.08;109053;1251;101369;-74
2023/02/17 03:30:32;;;;;;;54.90;29.60;;;;;;;-0.88;71.73;97673.91;109035;1249;99662;-74
2023/02/17 03:33:00;;;;;;;49.10;27.40;;;;;;;-0.86;71.72;97672.84;108996;1249;95523;-75
2023/02/17 03:35:28;;;;;;;53.90;28.10;;;;;;;-0.85;71.68;97670.77;109011;1251;96072;-74
2023/02/17 03:37:56;;;;;;;54.90;27.50;;;;;;;-0.83;71.73;97668.78;109066;1251;103353;-75
2023/02/17 03:40:24;;;;;;;52.10;28.30;;;;;;;-0.82;71.65;97663.73;109064;1251;101553;-74
2023/02/17 03:42:53;;;;;;;47.40;26.40;;;;;;;-0.82;71.63;97663.92;109013;1250;100082;-76
2023/02/17 03:45:21;;;;;;;47.20;25.90;;;;;;;-0.81;71.65;97664.96;108670;1250;95656;-77
2023/02/17 03:47:49;;;;;;;51.30;28.60;;;;;;;-0.81;71.77;97659.66;108986;1250;96439;-74
2023/02/17 03:50:17;;;;;;;54.40;27.50;;;;;;;-0.79;71.87;97657.88;108730;1254;103003;-78
2023/02/17 03:52:46;;;;;;;52.30;28.50;;;;;;;-0.77;71.89;97654.36;108876;1249;101580;-73
2023/02/17 03:55:14;;;;;;;49.30;27.00;;;;;;;-0.77;72.00;97650.11;108978;1250;100026;-76
2023/02/17 03:57:42;;;;;;;53.80;26.60;;;;;;;-0.76;72.32;97647.72;109086;1250;95565;-74
2023/02/17 04:00:10;;;;;;;49.60;26.50;;;;;;;-0.70;72.42;97644.18;108732;1250;97561;-74
2023/02/17 04:02:38;;;;;;;54.50;26.70;;;;;;;-0.63;72.39;97648.20;108683;1251;104907;-75
2023/02/17 04:05:07;;;;;;;49.50;26.80;;;;;;;-0.59;72.43;97651.52;108991;1251;101280;-74
2023/02/17 04:07:35;;;;;;;50.90;26.30;;;;;;;-0.55;72.53;97655.33;108433;1251;99916;-74
2023/02/17 04:10:05;;;;;;;44.90;26.40;;;;;;;-0.50;72.57;97652.96;108979;1251;95599;-76
2023/02/17 04:12:33;;;;;;;52.20;26.60;;;;;;;-0.44;72.53;97648.01;108745;1251;96679;-74
2023/02/17 04:15:01;;;;;;;45.70;25.70;;;;;;;-0.39;72.48;97646.86;108903;1251;102224;-76
2023/02/17 04:17:29;;;;;;;47.30;25.50;;;;;;;-0.35;72.40;97640.34;109079;1249;101619;-75
2023/02/17 04:19:57;;;;;;;47.70;26.10;;;;;;;-0.31;72.38;97638.23;108662;1249;100185;-74
2023/02/17 04:22:26;;;;;;;50.80;28.40;;;;;;;-0.29;72.52;97631.82;108981;1250;95537;-74
2023/02/17 04:24:54;;;;;;;51.40;26.70;;;;;;;-0.26;72.45;97632.41;109051;1250;96011;-77
2023/02/17 04:27:22;;;;;;;53.30;26.90;;;;;;;-0.22;72.57;97631.36;109007;1250;103450;-74
2023/02/17 04:29:51;;;;;;;52.10;27.40;;;;;;;-0.19;72.52;97629.86;109048;1250;101293;-74
2023/02/17 04:32:20;;;;;;;52.70;28.70;;;;;;;-0.15;72.57;97636.61;108983;1250;99021;-77
2023/02/17 04:34:48;;;;;;;43.90;25.50;;;;;;;-0.12;72.60;97636.43;108687;1250;95584;-76
2023/02/17 04:37:16;;;;;;;47.10;26.60;;;;;;;-0.06;72.63;97637.36;108775;1251;96005;-74
2023/02/17 04:39:45;;;;;;;51.60;26.30;;;;;;;-0.04;72.50;97625.44;108680;1251;102937;-74
2023/02/17 04:42:13;;;;;;;48.90;26.10;;;;;;;-0.00;72.52;97620.02;109057;1250;101129;-74
2023/02/17 04:44:41;;;;;;;51.30;26.70;;;;;;;0.04;72.59;97615.21;109035;1250;99464;-78
2023/02/17 04:47:09;;;;;;;48.90;25.60;;;;;;;0.06;72.71;97612.68;108950;1249;95532;-75
2023/02/17 04:49:37;;;;;;;51.80;28.80;;;;;;;0.08;72.78;97615.54;109115;1249;95970;-73
2023/02/17 04:52:06;;;;;;;52.80;27.90;;;;;;;0.09;72.73;97614.70;109061;1250;103406;-73
2023/02/17 04:54:34;;;;;;;49.50;26.70;;;;;;;0.11;72.70;97613.30;109074;1250;101213;-72
2023/02/17 04:57:02;;;;;;;49.60;27.10;;;;;;;0.14;72.63;97617.25;109067;1249;99873;-73
2023/02/17 04:59:30;;;;;;;53.30;27.70;;;;;;;0.18;72.56;97619.18;108983;1250;95751;-72
2023/02/17 05:01:58;;;;;;;53.60;28.90;;;;;;;0.21;72.62;97619.08;109073;1250;96041;-75
2023/02/17 05:04:26;;;;;;;50.70;30.30;;;;;;;0.23;72.66;97621.16;108978;1249;103631;-75
2023/02/17 05:06:54;;;;;;;53.80;29.30;;;;;;;0.28;72.70;97621.42;109027;1249;100998;-76
2023/02/17 05:09:22;;;;;;;51.20;28.70;;;;;;;0.33;72.53;97620.81;108850;1251;100306;-72
2023/02/17 05:11:50;;;;;;;51.10;28.80;;;;;;;0.38;72.42;97624.09;109003;1249;95605;-74
2023/02/17 05:14:19;;;;;;;55.10;30.10;;;;;;;0.40;72.39;97621.77;108962;1250;97091;-73
2023/02/17 05:16:47;;;;;;;46.70;27.60;;;;;;;0.41;72.32;97622.86;109087;1250;104023;-73
2023/02/17 05:19:15;;;;;;;49.70;28.40;;;;;;;0.42;72.31;97619.77;109028;1250;101031;-73
2023/02/17 05:21:43;;;;;;;53.70;29.60;;;;;;;0.45;72.35;97620.60;109004;1250;99673;-73
2023/02/17 05:24:11;;;;;;;48.60;28.40;;;;;;;0.49;72.29;97619.69;109015;1250;95520;-76
2023/02/17 05:26:40;;;;;;;57.30;30.80;;;;;;;0.49;72.31;97617.13;109051;1249;95975;-76
2023/02/17 05:29:08;;;;;;;55.00;30.50;;;;;;;0.50;72.31;97615.52;109029;1250;103130;-73
2023/02/17 05:31:36;;;;;;;57.50;30.10;;;;;;;0.52;72.40;97618.48;109002;1250;101230;-75
2023/02/17 05:34:04;;;;;;;54.80;30.90;;;;;;;0.52;72.41;97611.20;109020;1250;99864;-73
2023/02/17 05:36:32;;;;;;;55.40;29.10;;;;;;;0.51;72.46;97600.30;109019;1249;95568;-73
2023/02/17 05:39:00;;;;;;;51.50;28.50;;;;;;;0.51;72.51;97597.90;109029;1249;96006;-73
2023/02/17 05:41:29;;;;;;;58.20;30.10;;;;;;;0.50;72.44;97594.09;109057;1250;102358;-73
2023/02/17 05:43:57;;;;;;;64.10;32.10;;;;;;;0.50;72.46;97590.55;109059;1250;101301;-73
2023/02/17 05:46:25;;;;;;;58.80;31.30;;;;;;;0.52;72.50;97595.33;108644;1250;100133;-73
2023/02/17 05:48:53;;;;;;;68.40;34.60;;;;;;;0.55;72.47;97594.67;108678;1251;95617;-73
2023/02/17 05:51:21;;;;;;;61.80;33.50;;;;;;;0.57;72.53;97589.54;108747;1250;95693;-77
2023/02/17 05:53:49;;;;;;;59.40;32.30;;;;;;;0.58;72.62;97592.08;109020;1249;103565;-72
2023/02/17 05:56:17;;;;;;;69.90;32.80;;;;;;;0.60;72.52;97593.47;109098;1249;101842;-73
2023/02/17 05:58:46;;;;;;;60.60;31.90;;;;;;;0.63;72.54;97595.65;109007;1250;99935;-71
2023/02/17 06:01:14;;;;;;;58.00;32.90;;;;;;;0.67;72.63;97596.65;109030;1250;95585;-73
2023/02/17 06:03:42;;;;;;;63.60;32.10;;;;;;;0.70;72.54;97603.48;108719;1251;96545;-73
2023/02/17 06:06:11;;;;;;;65.10;34.30;;;;;;;0.73;72.43;97602.34;109064;1249;103607;-73
2023/02/17 06:08:39;;;;;;;64.30;33.00;;;;;;;0.73;72.52;97604.59;109044;1249;100983;-73
2023/02/17 06:11:08;;;;;;;66.30;33.80;;;;;;;0.74;72.63;97610.90;108993;1249;99818;-73
2023/02/17 06:13:36;;;;;;;63.10;32.90;;;;;;;0.78;72.54;97602.23;108988;1249;95537;-73
2023/02/17 06:16:04;;;;;;;62.10;33.30;;;;;;;0.82;72.67;97598.63;108721;1251;96532;-73
2023/02/17 06:18:33;;;;;;;66.30;34.30;;;;;;;0.83;72.75;97593.89;109053;1250;103483;-72
2023/02/17 06:21:01;;;;;;;62.10;31.60;;;;;;;0.84;72.72;97588.17;109055;1249;101260;-73
2023/02/17 06:23:29;;;;;;;61.90;32.50;;;;;;;0.86;73.00;97581.52;109022;1249;99898;-73
2023/02/17 06:25:57;;;;;;;62.80;33.50;;;;;;;0.90;72.92;97576.91;109072;1249;95855;-76
2023/02/17 06:28:25;;;;;;;64.80;32.90;;;;;;;0.95;72.89;97574.90;108770;1251;96519;-73
2023/02/17 06:30:53;;;;;;;73.30;38.70;;;;;;;0.98;72.90;97575.80;109044;1250;103721;-73
2023/02/17 06:33:21;;;;;;;75.60;37.80;;;;;;;1.03;72.92;97580.08;108701;1251;101530;-75
2023/02/17 06:35:51;;;;;;;84.70;42.50;;;;;;;1.08;72.89;97579.41;108888;1249;99761;-75
2023/02/17 06:38:19;;;;;;;83.80;41.00;;;;;;;1.14;72.90;97571.64;109012;1249;95657;-75
2023/02/17 06:40:47;;;;;;;79.40;40.20;;;;;;;1.20;72.74;97566.61;109061;1250;96025;-73
2023/02/17 06:43:15;;;;;;;73.20;37.40;;;;;;;1.25;72.71;97564.86;109034;1250;103602;-74
2023/02/17 06:45:43;;;;;;;63.10;31.60;;;;;;;1.29;72.80;97559.17;109045;1249;101315;-73
2023/02/17 06:48:12;;;;;;;61.40;34.30;;;;;;;1.36;73.00;97554.20;109032;1250;100276;-74
2023/02/17 06:50:40;;;;;;;55.40;28.80;;;;;;;1.45;73.04;97552.26;109019;1250;95547;-75
2023/02/17 06:53:08;;;;;;;70.00;37.70;;;;;;;1.56;73.02;97552.56;109036;1250;96024;-75
2023/02/17 06:55:37;;;;;;;62.40;33.20;;;;;;;1.67;73.08;97555.34;108442;1251;102486;-74
2023/02/17 06:58:06;;;;;;;61.80;33.70;;;;;;;1.79;72.90;97551.70;109050;1250;101502;-73
2023/02/17 07:00:34;;;;;;;64.60;33.90;;;;;;;1.89;72.74;97549.30;109043;1250;100109;-73
2023/02/17 07:03:02;;;;;;;55.00;30.70;;;;;;;1.99;72.67;97549.65;109001;1249;95566;-73
2023/02/17 07:05:30;;;;;;;49.80;27.70;;;;;;;2.07;72.56;97543.48;108491;1249;96102;-76
2023/02/17 07:07:58;;;;;;;54.50;30.40;;;;;;;2.16;72.43;97540.27;109028;1250;102696;-74
2023/02/17 07:10:26;;;;;;;55.70;30.20;;;;;;;2.26;72.27;97543.02;109114;1250;101277;-74
2023/02/17 07:12:54;;;;;;;49.00;27.40;;;;;;;2.36;72.40;97542.36;109018;1249;99395;-73
2023/02/17 07:15:22;;;;;;;53.10;28.70;;;;;;;2.46;72.30;97548.77;108983;1250;95559;-73
2023/02/17 07:17:51;;;;;;;57.70;31.40;;;;;;;2.55;72.18;97555.67;109042;1249;96012;-73
2023/02/17 07:20:19;;;;;;;58.20;31.20;;;;;;;2.64;72.18;97560.75;109037;1250;103426;-72
2023/02/17 07:22:47;;;;;;;60.10;31.90;;;;;;;2.73;72.11;97560.93;109061;1250;101938;-75
2023/02/17 07:25:15;;;;;;;82.80;43.40;;;;;;;2.82;71.99;97561.05;108616;1251;99083;-72
2023/02/17 07:27:43;;;;;;;68.50;36.90;;;;;;;2.90;71.82;97561.45;108982;1250;95588;-76
2023/02/17 07:30:12;;;;;;;64.70;33.50;;;;;;;3.00;71.80;97566.96;109052;1250;96036;-75
2023/02/17 07:32:40;;;;;;;62.90;34.30;;;;;;;3.08;71.67;97567.00;108739;1250;103591;-75
2023/02/17 07:35:08;;;;;;;53.90;29.50;;;;;;;3.16;71.61;97569.30;109041;1250;101266;-73
2023/02/17 07:37:36;;;;;;;54.60;29.90;;;;;;;3.25;71.58;97572.83;108707;1251;99269;-74
2023/02/17 07:40:05;;;;;;;51.60;29.90;;;;;;;3.33;71.34;97572.23;108987;1250;95614;-73
2023/02/17 07:42:33;;;;;;;50.40;28.80;;;;;;;3.39;71.44;97573.64;108744;1251;95979;-73
2023/02/17 07:45:02;;;;;;;50.00;28.90;;;;;;;3.46;71.41;97573.11;109026;1250;103079;-73
2023/02/17 07:47:31;;;;;;;51.70;29.00;;;;;;;3.51;71.19;97569.87;109082;1250;101236;-74
2023/02/17 07:50:00;;;;;;;54.00;28.50;;;;;;;3.56;71.32;97568.62;108811;1249;99479;-74
2023/02/17 07:52:28;;;;;;;53.60;29.10;;;;;;;3.62;71.35;97565.73;109028;1249;95552;-73
2023/02/17 07:54:56;;;;;;;58.00;29.40;;;;;;;3.67;71.07;97566.44;109027;1250;96008;-75
2023/02/17 07:57:25;;;;;;;54.30;28.60;;;;;;;3.71;70.97;97563.15;108843;1250;207662;-74
2023/02/17 07:59:53;;;;;;;58.00;30.30;;;;;;;3.75;70.87;97560.16;109024;1250;101350;-73
2023/02/17 08:02:21;;;;;;;60.30;31.80;;;;;;;3.79;70.81;97558.98;108705;1251;99989;-75
2023/02/17 08:04:51;;;;;;;52.60;29.80;;;;;;;3.83;70.83;97555.52;108648;1250;96157;-73
2023/02/17 08:07:20;;;;;;;61.90;33.10;;;;;;;3.89;70.75;97551.88;108776;1251;95802;-73
2023/02/17 08:15:33;;;;;;;52.60;30.20;;;;;;;4.17;70.67;97547.98;109003;1250;98576;-74
2023/02/17 08:18:03;;;;;;;49.40;27.70;;;;;;;4.27;70.68;97543.50;108660;1251;95602;-74
2023/02/17 08:20:32;;;;;;;49.00;28.30;;;;;;;4.37;70.61;97540.01;108994;1250;96008;-76
2023/02/17 08:23:02;;;;;;;50.50;27.20;;;;;;;4.49;70.58;97531.02;109008;1250;103512;-74
2023/02/17 08:25:35;;;;;;;47.60;27.10;;;;;;;4.61;70.56;97523.35;109058;1250;101340;-73
2023/02/17 08:28:05;;;;;;;44.80;26.10;;;;;;;4.75;70.40;97519.04;109023;1250;100039;-73
2023/02/17 08:30:37;;;;;;;48.30;25.00;;;;;;;4.91;70.38;97522.27;108888;1250;95639;-74
2023/02/17 08:33:06;;;;;;;48.40;27.10;;;;;;;5.05;70.28;97517.04;108981;1250;95599;-76
2023/02/17 08:35:34;;;;;;;49.40;27.80;;;;;;;5.19;70.19;97517.95;108661;1250;102903;-75
2023/02/17 08:38:02;;;;;;;47.30;27.80;;;;;;;5.33;70.03;97517.54;108993;1250;101344;-73
2023/02/17 08:40:31;;;;;;;48.20;27.90;;;;;;;5.48;69.82;97515.85;108883;1250;99912;-73
2023/02/17 08:42:59;;;;;;;45.20;28.70;;;;;;;5.62;69.71;97516.47;108969;1249;95661;-74
2023/02/17 08:45:27;;;;;;;49.70;28.90;;;;;;;5.74;69.56;97516.15;108957;1250;95973;-73
2023/02/17 08:47:55;;;;;;;50.20;29.80;;;;;;;5.84;69.22;97510.33;108696;1250;103686;-73
2023/02/17 08:50:23;;;;;;;53.50;29.40;;;;;;;5.94;69.04;97506.35;108979;1250;99977;-73
2023/02/17 08:52:51;;;;;;;51.40;27.50;;;;;;;6.04;69.02;97494.48;108955;1250;99898;-73
2023/02/17 08:55:22;;;;;;;47.40;26.50;;;;;;;6.14;68.91;97494.56;108916;1250;95784;-74
2023/02/17 08:57:50;;;;;;;39.30;24.10;;;;;;;6.27;68.72;97489.81;108950;1250;95968;-74
2023/02/17 09:00:19;;;;;;;38.80;25.20;;;;;;;6.42;68.72;97492.05;108730;1250;103483;-72
2023/02/17 09:02:47;;;;;;;38.80;23.80;;;;;;;6.55;68.52;97486.88;108930;1250;101386;-72
2023/02/17 09:05:15;;;;;;;40.50;24.20;;;;;;;6.66;68.33;97489.48;108814;1251;99245;-73
2023/02/17 09:07:44;;;;;;;34.30;21.60;;;;;;;6.79;68.04;97489.52;108913;1249;96540;-72
2023/02/17 09:10:14;;;;;;;32.50;20.60;;;;;;;6.93;67.94;97482.86;108965;1251;96122;-74
2023/02/17 09:12:43;;;;;;;34.70;20.70;;;;;;;7.12;68.01;97490.00;108991;1250;103554;-73
2023/02/17 09:15:11;;;;;;;34.20;20.90;;;;;;;7.30;67.71;97491.02;108925;1249;101519;-74
2023/02/17 09:17:40;;;;;;;35.80;21.60;;;;;;;7.42;67.46;97487.85;108921;1251;99780;-73
2023/02/17 09:20:09;;;;;;;35.10;21.50;;;;;;;7.50;67.18;97486.45;108923;1250;95542;-73
2023/02/17 09:22:38;;;;;;;33.10;20.10;;;;;;;7.56;66.83;97484.29;108671;1250;96059;-73
2023/02/17 09:25:06;;;;;;;32.20;21.40;;;;;;;7.66;66.65;97484.17;108952;1249;103540;-73
2023/02/17 09:27:35;;;;;;;37.20;19.70;;;;;;;7.77;66.48;97482.64;108955;1250;101280;-74
2023/02/17 09:30:03;;;;;;;37.90;20.00;;;;;;;7.87;66.27;97481.48;108661;1249;98970;-73
2023/02/17 09:32:31;;;;;;;30.70;19.00;;;;;;;7.95;66.06;97478.83;108962;1249;95563;-73
2023/02/17 09:35:00;;;;;;;31.30;19.30;;;;;;;8.00;65.76;97472.17;108506;1250;96058;-75
2023/02/17 09:37:28;;;;;;;28.80;18.10;;;;;;;8.02;65.65;97470.47;108989;1249;103673;-74
2023/02/17 09:39:56;;;;;;;31.90;18.80;;;;;;;8.02;65.44;97477.08;108963;1250;101367;-75
2023/02/17 09:42:27;;;;;;;32.00;18.30;;;;;;;8.01;65.23;97475.65;108945;1249;99950;-73
2023/02/17 09:45:06;;;;;;;27.90;18.70;;;;;;;8.00;65.09;97478.01;108967;1249;95520;-73
2023/02/17 09:47:51;;;;;;;26.80;16.20;;;;;;;7.96;65.10;97476.04;109111;1250;95913;-74
2023/02/17 09:50:24;;;;;;;28.20;18.10;;;;;;;7.92;64.96;97471.00;108870;1251;103566;-73
2023/02/17 09:53:18;;;;;;;28.30;18.00;;;;;;;7.86;65.04;97467.09;108949;1251;101416;-73
2023/02/17 09:55:51;;;;;;;29.40;17.60;;;;;;;7.81;65.10;97465.23;108923;1251;100007;-73
2023/02/17 09:58:27;;;;;;;30.90;18.20;;;;;;;7.75;65.27;97468.55;108937;1249;95641;-72
2023/02/17 10:01:02;;;;;;;32.00;18.70;;;;;;;7.74;65.35;97471.55;108972;1250;95998;-74
2023/02/17 10:04:06;;;;;;;29.70;17.60;;;;;;;7.70;65.51;97464.53;108890;1250;103263;-72
2023/02/17 10:06:37;;;;;;;32.70;19.70;;;;;;;7.61;65.79;97461.77;108300;1258;101356;-75
2023/02/17 10:09:31;;;;;;;31.50;19.90;;;;;;;7.56;66.06;97458.46;108216;1259;99040;-72
2023/02/17 10:12:16;;;;;;;31.80;17.80;;;;;;;7.54;66.18;97456.04;108227;1259;95854;-74
2023/02/17 10:14:56;;;;;;;28.80;18.50;;;;;;;7.53;66.34;97450.14;108203;1258;96039;-74
2023/02/17 10:17:46;;;;;;;35.30;20.00;;;;;;;7.51;66.51;97444.27;108248;1258;103533;-71
2023/02/17 10:20:19;;;;;;;30.10;18.80;;;;;;;7.49;66.66;97441.60;108250;1259;101409;-71
2023/02/17 10:22:55;;;;;;;35.30;20.90;;;;;;;7.47;66.99;97438.86;108224;1258;99486;-74
2023/02/17 10:25:45;;;;;;;31.10;18.90;;;;;;;7.48;67.32;97435.11;108080;1259;95659;-72
2023/02/17 10:28:38;;;;;;;30.20;20.10;;;;;;;7.51;67.47;97432.56;108220;1259;95639;-73
2023/02/17 10:31:26;;;;;;;34.40;20.70;;;;;;;7.50;67.91;97437.89;108248;1259;103798;-73
2023/02/17 10:34:23;;;;;;;33.00;22.10;;;;;;;7.48;68.07;97433.08;108086;1259;101441;-72
2023/02/17 10:37:13;;;;;;;33.30;20.40;;;;;;;7.42;68.02;97426.98;107891;1264;99836;-73
2023/02/17 10:39:55;;;;;;;37.70;21.80;;;;;;;7.42;68.12;97422.52;107932;1264;95964;-73
2023/02/17 10:42:39;;;;;;;33.60;22.80;;;;;;;7.44;68.27;97417.96;107988;1259;95975;-75
2023/02/17 10:45:20;;;;;;;34.20;22.00;;;;;;;7.42;68.41;97416.82;108207;1259;103137;-73
2023/02/17 10:47:48;;;;;;;36.40;21.60;;;;;;;7.39;68.19;97417.15;108243;1259;109691;-72
2023/02/17 10:50:22;;;;;;;28.20;18.30;;;;;;;7.37;68.12;97416.63;108151;1259;100132;-75
2023/02/17 10:52:51;;;;;;;31.90;20.80;;;;;;;7.38;68.33;97416.52;108093;1259;95646;-73
2023/02/17 10:55:40;;;;;;;35.60;20.00;;;;;;;7.37;68.46;97416.84;108240;1259;96103;-74
2023/02/17 10:58:19;;;;;;;32.10;19.30;;;;;;;7.37;68.71;97414.61;108213;1259;103131;-72
2023/02/17 11:00:52;;;;;;;33.00;20.00;;;;;;;7.37;68.93;97408.86;108229;1259;101760;-72
2023/02/17 11:03:23;;;;;;;32.70;19.90;;;;;;;7.40;68.77;97412.54;108201;1259;99620;-73
2023/02/17 11:06:21;;;;;;;36.20;20.70;;;;;;;7.41;68.60;97408.10;108159;1259;95711;-72
2023/02/17 11:08:50;;;;;;;33.90;21.50;;;;;;;7.38;68.76;97406.30;107781;1265;96127;-72
2023/02/17 11:11:22;;;;;;;31.00;19.20;;;;;;;7.35;68.85;97401.52;107694;1265;102623;-73
2023/02/17 11:14:09;;;;;;;26.70;16.90;;;;;;;7.28;68.76;97393.45;108035;1259;101332;-73
2023/02/17 11:16:39;;;;;;;26.60;17.60;;;;;;;7.21;68.48;97385.92;108272;1258;98965;-73
2023/02/17 11:19:28;;;;;;;29.60;18.80;;;;;;;7.17;68.55;97377.77;108260;1258;95615;-75
2023/02/17 11:21:59;;;;;;;28.40;17.30;;;;;;;7.16;68.47;97373.87;108111;1259;96018;-74
2023/02/17 11:24:29;;;;;;;31.30;19.20;;;;;;;7.09;68.61;97365.63;108185;1259;102605;-73
2023/02/17 11:27:17;;;;;;;50.90;26.80;;;;;;;7.09;68.82;97367.48;108236;1258;101474;-73
2023/02/17 11:29:45;;;;;;;39.00;22.40;;;;;;;7.11;69.09;97366.24;108270;1257;99899;-73
2023/02/17 11:32:13;;;;;;;37.60;22.10;;;;;;;7.11;69.41;97358.73;108205;1258;95661;-72
2023/02/17 11:34:44;;;;;;;31.70;19.60;;;;;;;7.12;69.49;97358.69;108293;1257;96581;-71
2023/02/17 11:37:12;;;;;;;33.30;19.80;;;;;;;7.08;69.50;97353.02;108147;1257;103158;-72
2023/02/17 11:39:46;;;;;;;32.20;19.50;;;;;;;7.04;69.49;97352.24;108285;1257;101853;-72